sensor_id;sensor_type;location;lat;lon;timestamp;pressure;altitude;pressure_sealevel;temperature
67966;BMP280;54749;47.850;9.002;2022-08-19T00:01:31;95590.38;;;17.94
67966;BMP280;54749;47.850;9.002;2022-08-19T00:04:06;95586.69;;;17.96
67966;BMP280;54749;47.850;9.002;2022-08-19T00:06:34;95593.72;;;17.94
67966;BMP280;54749;47.850;9.002;2022-08-19T00:09:04;95603.00;;;17.95
67966;BMP280;54749;47.850;9.002;2022-08-19T00:11:32;95593.56;;;17.96
67966;BMP280;54749;47.850;9.002;2022-08-19T00:14:01;95596.72;;;17.98
67966;BMP280;54749;47.850;9.002;2022-08-19T00:16:28;95616.41;;;17.97
67966;BMP280;54749;47.850;9.002;2022-08-19T00:18:55;95626.63;;;17.97
67966;BMP280;54749;47.850;9.002;2022-08-19T00:21:23;95628.38;;;17.97
67966;BMP280;54749;47.850;9.002;2022-08-19T00:23:50;95629.03;;;17.99
67966;BMP280;54749;47.850;9.002;2022-08-19T00:26:17;95618.63;;;18.00
67966;BMP280;54749;47.850;9.002;2022-08-19T00:28:44;95599.75;;;18.01
67966;BMP280;54749;47.850;9.002;2022-08-19T00:31:10;95603.28;;;18.00
67966;BMP280;54749;47.850;9.002;2022-08-19T00:33:37;95605.06;;;18.00
67966;BMP280;54749;47.850;9.002;2022-08-19T00:36:07;95605.06;;;18.00
67966;BMP280;54749;47.850;9.002;2022-08-19T00:38:34;95615.44;;;17.98
67966;BMP280;54749;47.850;9.002;2022-08-19T00:41:07;95617.19;;;17.98
67966;BMP280;54749;47.850;9.002;2022-08-19T00:43:35;95621.50;;;17.97
67966;BMP280;54749;47.850;9.002;2022-08-19T00:46:01;95621.50;;;17.97
67966;BMP280;54749;47.850;9.002;2022-08-19T00:48:32;95617.69;;;17.93
67966;BMP280;54749;47.850;9.002;2022-08-19T00:51:00;95604.09;;;17.93
67966;BMP280;54749;47.850;9.002;2022-08-19T00:53:29;95608.41;;;17.92
67966;BMP280;54749;47.850;9.002;2022-08-19T00:55:59;95608.41;;;17.92
67966;BMP280;54749;47.850;9.002;2022-08-19T00:58:30;95612.94;;;17.90
67966;BMP280;54749;47.850;9.002;2022-08-19T01:00:59;95617.09;;;17.91
67966;BMP280;54749;47.850;9.002;2022-08-19T01:03:27;95618.66;;;17.92
67966;BMP280;54749;47.850;9.002;2022-08-19T01:06:14;95618.03;;;17.90
67966;BMP280;54749;47.850;9.002;2022-08-19T01:08:46;95612.94;;;17.90
67966;BMP280;54749;47.850;9.002;2022-08-19T01:11:16;95613.53;;;17.92
67966;BMP280;54749;47.850;9.002;2022-08-19T01:13:43;95615.94;;;17.94
67966;BMP280;54749;47.850;9.002;2022-08-19T01:16:17;95612.56;;;17.93
67966;BMP280;54749;47.850;9.002;2022-08-19T01:18:46;95610.66;;;17.95
67966;BMP280;54749;47.850;9.002;2022-08-19T01:21:30;95620.25;;;17.93
67966;BMP280;54749;47.850;9.002;2022-08-19T01:23:58;95607.47;;;17.93
67966;BMP280;54749;47.850;9.002;2022-08-19T01:26:26;95610.03;;;17.93
67966;BMP280;54749;47.850;9.002;2022-08-19T01:28:55;95592.63;;;17.89
67966;BMP280;54749;47.850;9.002;2022-08-19T01:31:28;95597.28;;;17.86
67966;BMP280;54749;47.850;9.002;2022-08-19T01:34:00;95594.88;;;17.84
67966;BMP280;54749;47.850;9.002;2022-08-19T01:38:57;95602.25;;;17.87
67966;BMP280;54749;47.850;9.002;2022-08-19T01:41:25;95606.72;;;17.85
67966;BMP280;54749;47.850;9.002;2022-08-19T01:43:52;95600.19;;;17.83
67966;BMP280;54749;47.850;9.002;2022-08-19T01:46:41;95601.59;;;17.85
67966;BMP280;54749;47.850;9.002;2022-08-19T01:49:08;95603.34;;;17.85
67966;BMP280;54749;47.850;9.002;2022-08-19T01:51:36;95604.00;;;17.87
67966;BMP280;54749;47.850;9.002;2022-08-19T01:54:08;95611.31;;;17.89
67966;BMP280;54749;47.850;9.002;2022-08-19T01:56:35;95606.22;;;17.89
67966;BMP280;54749;47.850;9.002;2022-08-19T01:59:09;95610.72;;;17.88
67966;BMP280;54749;47.850;9.002;2022-08-19T02:01:37;95610.72;;;17.88
67966;BMP280;54749;47.850;9.002;2022-08-19T02:04:04;95606.22;;;17.89
67966;BMP280;54749;47.850;9.002;2022-08-19T02:06:32;95604.31;;;17.91
67966;BMP280;54749;47.850;9.002;2022-08-19T02:09:00;95588.75;;;17.93
67966;BMP280;54749;47.850;9.002;2022-08-19T02:11:30;95583.50;;;17.94
67966;BMP280;54749;47.850;9.002;2022-08-19T02:14:01;95587.66;;;17.95
67966;BMP280;54749;47.850;9.002;2022-08-19T02:16:29;95590.50;;;18.00
67966;BMP280;54749;47.850;9.002;2022-08-19T02:18:57;95581.84;;;18.01
67966;BMP280;54749;47.850;9.002;2022-08-19T02:21:28;95589.22;;;18.04
67966;BMP280;54749;47.850;9.002;2022-08-19T02:23:56;95579.47;;;18.00
67966;BMP280;54749;47.850;9.002;2022-08-19T02:26:23;95591.63;;;17.98
67966;BMP280;54749;47.850;9.002;2022-08-19T02:28:50;95585.91;;;17.96
67966;BMP280;54749;47.850;9.002;2022-08-19T02:31:20;95590.81;;;17.97
67966;BMP280;54749;47.850;9.002;2022-08-19T02:33:52;95594.53;;;17.95
67966;BMP280;54749;47.850;9.002;2022-08-19T02:36:23;95590.72;;;17.91
67966;BMP280;54749;47.850;9.002;2022-08-19T02:38:51;95589.91;;;17.90
67966;BMP280;54749;47.850;9.002;2022-08-19T02:41:26;95592.47;;;17.90
67966;BMP280;54749;47.850;9.002;2022-08-19T02:43:55;95590.22;;;17.95
67966;BMP280;54749;47.850;9.002;2022-08-19T02:46:46;95590.03;;;17.97
67966;BMP280;54749;47.850;9.002;2022-08-19T02:49:14;95594.03;;;17.99
67966;BMP280;54749;47.850;9.002;2022-08-19T02:51:45;95592.41;;;17.98
67966;BMP280;54749;47.850;9.002;2022-08-19T02:54:13;95602.66;;;17.98
67966;BMP280;54749;47.850;9.002;2022-08-19T02:56:41;95590.50;;;18.00
67966;BMP280;54749;47.850;9.002;2022-08-19T02:59:09;95609.38;;;17.99
67966;BMP280;54749;47.850;9.002;2022-08-19T03:01:38;95604.25;;;17.99
67966;BMP280;54749;47.850;9.002;2022-08-19T03:04:08;95605.84;;;18.00
67966;BMP280;54749;47.850;9.002;2022-08-19T03:06:37;95598.78;;;18.02
67966;BMP280;54749;47.850;9.002;2022-08-19T03:09:04;95602.31;;;18.01
67966;BMP280;54749;47.850;9.002;2022-08-19T03:11:32;95593.69;;;18.02
67966;BMP280;54749;47.850;9.002;2022-08-19T03:14:00;95592.06;;;18.01
67966;BMP280;54749;47.850;9.002;2022-08-19T03:16:29;95595.28;;;18.03
67966;BMP280;54749;47.850;9.002;2022-08-19T03:19:00;95598.63;;;18.04
67966;BMP280;54749;47.850;9.002;2022-08-19T03:21:30;95600.22;;;18.05
67966;BMP280;54749;47.850;9.002;2022-08-19T03:23:59;95606.16;;;18.05
67966;BMP280;54749;47.850;9.002;2022-08-19T03:26:26;95596.88;;;18.04
67966;BMP280;54749;47.850;9.002;2022-08-19T03:28:53;95598.47;;;18.05
67966;BMP280;54749;47.850;9.002;2022-08-19T03:31:26;95598.28;;;18.06
67966;BMP280;54749;47.850;9.002;2022-08-19T03:34:22;95605.34;;;18.05
67966;BMP280;54749;47.850;9.002;2022-08-19T03:36:49;95595.28;;;18.03
67966;BMP280;54749;47.850;9.002;2022-08-19T03:39:17;95599.44;;;18.04
67966;BMP280;54749;47.850;9.002;2022-08-19T03:41:45;95606.31;;;18.04
67966;BMP280;54749;47.850;9.002;2022-08-19T03:44:15;95601.03;;;18.05
67966;BMP280;54749;47.850;9.002;2022-08-19T03:46:47;95606.31;;;18.04
67966;BMP280;54749;47.850;9.002;2022-08-19T03:49:15;95607.25;;;18.03
67966;BMP280;54749;47.850;9.002;2022-08-19T03:51:45;95603.91;;;18.02
67966;BMP280;54749;47.850;9.002;2022-08-19T03:54:14;95607.41;;;18.01
67966;BMP280;54749;47.850;9.002;2022-08-19T03:56:44;95594.63;;;18.01
67966;BMP280;54749;47.850;9.002;2022-08-19T03:59:14;95592.56;;;17.97
67966;BMP280;54749;47.850;9.002;2022-08-19T04:01:41;95589.28;;;17.88
67966;BMP280;54749;47.850;9.002;2022-08-19T04:04:08;95597.63;;;17.83
67966;BMP280;54749;47.850;9.002;2022-08-19T04:06:37;95590.13;;;17.81
67966;BMP280;54749;47.850;9.002;2022-08-19T04:09:08;95596.94;;;17.81
67966;BMP280;54749;47.850;9.002;2022-08-19T04:11:41;95589.63;;;17.78
67966;BMP280;54749;47.850;9.002;2022-08-19T04:14:12;95589.28;;;17.81
67966;BMP280;54749;47.850;9.002;2022-08-19T04:16:40;95587.00;;;17.93
67966;BMP280;54749;47.850;9.002;2022-08-19T04:19:08;95576.97;;;17.92
67966;BMP280;54749;47.850;9.002;2022-08-19T04:21:35;95583.19;;;17.89
67966;BMP280;54749;47.850;9.002;2022-08-19T04:24:02;95586.41;;;17.91
67966;BMP280;54749;47.850;9.002;2022-08-19T04:26:32;95584.78;;;17.90
67966;BMP280;54749;47.850;9.002;2022-08-19T04:29:00;95589.28;;;17.88
67966;BMP280;54749;47.850;9.002;2022-08-19T04:31:30;95592.16;;;17.86
67966;BMP280;54749;47.850;9.002;2022-08-19T04:33:59;95579.22;;;17.87
67966;BMP280;54749;47.850;9.002;2022-08-19T04:36:29;95583.84;;;17.84
67966;BMP280;54749;47.850;9.002;2022-08-19T04:38:58;95589.78;;;17.84
67966;BMP280;54749;47.850;9.002;2022-08-19T04:41:26;95595.69;;;17.85
67966;BMP280;54749;47.850;9.002;2022-08-19T04:44:12;95600.00;;;17.84
67966;BMP280;54749;47.850;9.002;2022-08-19T04:46:40;95602.41;;;17.86
67966;BMP280;54749;47.850;9.002;2022-08-19T04:49:20;95610.81;;;17.94
67966;BMP280;54749;47.850;9.002;2022-08-19T04:51:52;95614.94;;;18.03
67966;BMP280;54749;47.850;9.002;2022-08-19T04:54:23;95622.09;;;18.07
67966;BMP280;54749;47.850;9.002;2022-08-19T04:57:06;95624.72;;;17.99
67966;BMP280;54749;47.850;9.002;2022-08-19T04:59:36;95631.44;;;18.00
67966;BMP280;54749;47.850;9.002;2022-08-19T05:02:04;95641.66;;;18.00
67966;BMP280;54749;47.850;9.002;2022-08-19T05:04:32;95647.72;;;17.99
67966;BMP280;54749;47.850;9.002;2022-08-19T05:07:00;95643.28;;;17.93
67966;BMP280;54749;47.850;9.002;2022-08-19T05:09:29;95639.00;;;17.86
67966;BMP280;54749;47.850;9.002;2022-08-19T05:12:17;95639.78;;;17.79
67966;BMP280;54749;47.850;9.002;2022-08-19T05:14:45;95642.66;;;17.76
67966;BMP280;54749;47.850;9.002;2022-08-19T05:17:14;95642.66;;;17.76
67966;BMP280;54749;47.850;9.002;2022-08-19T05:20:01;95651.59;;;17.80
67966;BMP280;54749;47.850;9.002;2022-08-19T05:22:47;95655.75;;;17.81
67966;BMP280;54749;47.850;9.002;2022-08-19T05:25:20;95651.47;;;17.81
67966;BMP280;54749;47.850;9.002;2022-08-19T05:27:47;95662.50;;;17.82
67966;BMP280;54749;47.850;9.002;2022-08-19T05:30:15;95654.63;;;17.91
67966;BMP280;54749;47.850;9.002;2022-08-19T05:32:43;95661.16;;;17.93
67966;BMP280;54749;47.850;9.002;2022-08-19T05:35:10;95659.75;;;17.91
67966;BMP280;54749;47.850;9.002;2022-08-19T05:37:38;95659.91;;;17.89
67966;BMP280;54749;47.850;9.002;2022-08-19T05:40:08;95664.38;;;17.95
67966;BMP280;54749;47.850;9.002;2022-08-19T05:42:35;95668.50;;;18.04
67966;BMP280;54749;47.850;9.002;2022-08-19T05:45:03;95667.16;;;18.16
67966;BMP280;54749;47.850;9.002;2022-08-19T05:47:31;95668.56;;;18.18
67966;BMP280;54749;47.850;9.002;2022-08-19T05:49:58;95681.50;;;18.24
67966;BMP280;54749;47.850;9.002;2022-08-19T05:52:25;95673.66;;;18.26
67966;BMP280;54749;47.850;9.002;2022-08-19T05:54:54;95669.84;;;18.22
67966;BMP280;54749;47.850;9.002;2022-08-19T05:57:23;95675.28;;;18.19
67966;BMP280;54749;47.850;9.002;2022-08-19T05:59:50;95672.25;;;18.16
67966;BMP280;54749;47.850;9.002;2022-08-19T06:02:28;95665.53;;;18.15
67966;BMP280;54749;47.850;9.002;2022-08-19T06:04:55;95667.31;;;18.14
67966;BMP280;54749;47.850;9.002;2022-08-19T06:07:22;95664.75;;;18.14
67966;BMP280;54749;47.850;9.002;2022-08-19T06:09:49;95660.44;;;18.15
67966;BMP280;54749;47.850;9.002;2022-08-19T06:12:29;95668.75;;;18.17
67966;BMP280;54749;47.850;9.002;2022-08-19T06:15:06;95666.81;;;18.19
67966;BMP280;54749;47.850;9.002;2022-08-19T06:17:34;95669.56;;;18.17
67966;BMP280;54749;47.850;9.002;2022-08-19T06:20:07;95668.41;;;18.20
67966;BMP280;54749;47.850;9.002;2022-08-19T06:22:42;95664.88;;;18.21
67966;BMP280;54749;47.850;9.002;2022-08-19T06:25:11;95659.44;;;18.23
67966;BMP280;54749;47.850;9.002;2022-08-19T06:27:39;95664.53;;;18.23
67966;BMP280;54749;47.850;9.002;2022-08-19T06:30:26;95665.00;;;18.27
67966;BMP280;54749;47.850;9.002;2022-08-19T06:32:53;95667.41;;;18.28
67966;BMP280;54749;47.850;9.002;2022-08-19T06:35:20;95677.63;;;18.28
67966;BMP280;54749;47.850;9.002;2022-08-19T06:37:47;95676.22;;;18.26
67966;BMP280;54749;47.850;9.002;2022-08-19T06:40:14;95690.94;;;18.24
67966;BMP280;54749;47.850;9.002;2022-08-19T06:42:40;95680.84;;;18.23
67966;BMP280;54749;47.850;9.002;2022-08-19T06:45:22;95686.59;;;18.24
67966;BMP280;54749;47.850;9.002;2022-08-19T06:47:51;95682.75;;;18.28
67966;BMP280;54749;47.850;9.002;2022-08-19T06:50:23;95688.50;;;18.30
67966;BMP280;54749;47.850;9.002;2022-08-19T06:52:50;95675.72;;;18.30
67966;BMP280;54749;47.850;9.002;2022-08-19T06:55:18;95678.88;;;18.32
67966;BMP280;54749;47.850;9.002;2022-08-19T06:57:46;95673.78;;;18.32
67966;BMP280;54749;47.850;9.002;2022-08-19T07:00:15;95675.03;;;18.36
67966;BMP280;54749;47.850;9.002;2022-08-19T07:02:43;95676.97;;;18.34
67966;BMP280;54749;47.850;9.002;2022-08-19T07:05:21;95678.88;;;18.32
67966;BMP280;54749;47.850;9.002;2022-08-19T07:07:48;95675.38;;;18.33
67966;BMP280;54749;47.850;9.002;2022-08-19T07:10:17;95676.28;;;18.40
67966;BMP280;54749;47.850;9.002;2022-08-19T07:12:44;95684.75;;;18.41
67966;BMP280;54749;47.850;9.002;2022-08-19T07:15:11;95684.59;;;18.42
67966;BMP280;54749;47.850;9.002;2022-08-19T07:17:38;95677.56;;;18.44
67966;BMP280;54749;47.850;9.002;2022-08-19T07:20:08;95681.38;;;18.48
67966;BMP280;54749;47.850;9.002;2022-08-19T07:22:37;95679.88;;;18.53
67966;BMP280;54749;47.850;9.002;2022-08-19T07:25:06;95677.00;;;18.56
67966;BMP280;54749;47.850;9.002;2022-08-19T07:27:34;95680.38;;;18.57
67966;BMP280;54749;47.850;9.002;2022-08-19T07:30:01;95687.06;;;18.58
67966;BMP280;54749;47.850;9.002;2022-08-19T07:32:28;95697.94;;;18.59
67966;BMP280;54749;47.850;9.002;2022-08-19T07:34:58;95695.69;;;18.64
67966;BMP280;54749;47.850;9.002;2022-08-19T07:37:27;95707.19;;;18.68
67966;BMP280;54749;47.850;9.002;2022-08-19T07:40:00;95699.84;;;18.65
67966;BMP280;54749;47.850;9.002;2022-08-19T07:42:28;95693.94;;;18.57
67966;BMP280;54749;47.850;9.002;2022-08-19T07:44:58;95699.53;;;18.60
67966;BMP280;54749;47.850;9.002;2022-08-19T07:47:25;95700.78;;;18.64
67966;BMP280;54749;47.850;9.002;2022-08-19T07:50:15;95695.66;;;18.72
67966;BMP280;54749;47.850;9.002;2022-08-19T07:52:42;95700.41;;;18.83
67966;BMP280;54749;47.850;9.002;2022-08-19T07:55:16;95697.78;;;18.91
67966;BMP280;54749;47.850;9.002;2022-08-19T07:58:03;95699.47;;;18.98
67966;BMP280;54749;47.850;9.002;2022-08-19T08:00:31;95702.19;;;18.96
67966;BMP280;54749;47.850;9.002;2022-08-19T08:02:58;95698.34;;;19.00
67966;BMP280;54749;47.850;9.002;2022-08-19T08:05:25;95691.91;;;19.04
67966;BMP280;54749;47.850;9.002;2022-08-19T08:08:12;95703.13;;;19.03
67966;BMP280;54749;47.850;9.002;2022-08-19T08:10:59;95708.25;;;19.03
67966;BMP280;54749;47.850;9.002;2022-08-19T08:13:27;95716.88;;;19.02
67966;BMP280;54749;47.850;9.002;2022-08-19T08:15:55;95707.59;;;19.01
67966;BMP280;54749;47.850;9.002;2022-08-19T08:18:24;95717.84;;;19.01
67966;BMP280;54749;47.850;9.002;2022-08-19T08:20:57;95725.09;;;18.98
67966;BMP280;54749;47.850;9.002;2022-08-19T08:26:27;95727.34;;;18.93
67966;BMP280;54749;47.850;9.002;2022-08-19T08:28:55;95734.81;;;19.02
67966;BMP280;54749;47.850;9.002;2022-08-19T08:31:22;95735.28;;;19.06
67966;BMP280;54749;47.850;9.002;2022-08-19T08:33:49;95731.75;;;19.07
67966;BMP280;54749;47.850;9.002;2022-08-19T08:36:17;95736.00;;;19.14
67966;BMP280;54749;47.850;9.002;2022-08-19T08:38:44;95744.16;;;19.17
67966;BMP280;54749;47.850;9.002;2022-08-19T08:43:57;95736.94;;;19.21
67966;BMP280;54749;47.850;9.002;2022-08-19T08:46:39;95752.31;;;19.21
67966;BMP280;54749;47.850;9.002;2022-08-19T08:49:29;95748.66;;;19.15
67966;BMP280;54749;47.850;9.002;2022-08-19T08:52:16;95749.75;;;19.21
67966;BMP280;54749;47.850;9.002;2022-08-19T08:54:48;95750.47;;;19.29
67966;BMP280;54749;47.850;9.002;2022-08-19T08:57:38;95749.81;;;19.35
67966;BMP280;54749;47.850;9.002;2022-08-19T09:00:15;95756.84;;;19.33
67966;BMP280;54749;47.850;9.002;2022-08-19T09:02:44;95760.16;;;19.41
67966;BMP280;54749;47.850;9.002;2022-08-19T09:05:18;95757.72;;;19.47
67966;BMP280;54749;47.850;9.002;2022-08-19T09:10:54;95769.38;;;19.50
67966;BMP280;54749;47.850;9.002;2022-08-19T09:16:10;95771.50;;;19.47
67966;BMP280;54749;47.850;9.002;2022-08-19T09:18:44;95769.72;;;19.47
67966;BMP280;54749;47.850;9.002;2022-08-19T09:21:14;95765.63;;;19.60
67966;BMP280;54749;47.850;9.002;2022-08-19T09:23:42;95771.91;;;19.58
67966;BMP280;54749;47.850;9.002;2022-08-19T09:26:13;95776.09;;;19.51
67966;BMP280;54749;47.850;9.002;2022-08-19T09:28:47;95784.13;;;19.48
67966;BMP280;54749;47.850;9.002;2022-08-19T09:31:18;95773.09;;;19.47
67966;BMP280;54749;47.850;9.002;2022-08-19T09:33:46;95778.03;;;19.49
67966;BMP280;54749;47.850;9.002;2022-08-19T09:36:16;95780.44;;;19.50
67966;BMP280;54749;47.850;9.002;2022-08-19T09:39:00;95777.84;;;19.50
67966;BMP280;54749;47.850;9.002;2022-08-19T09:41:27;95791.81;;;19.48
67966;BMP280;54749;47.850;9.002;2022-08-19T09:43:56;95779.84;;;19.41
67966;BMP280;54749;47.850;9.002;2022-08-19T09:46:28;95785.94;;;19.40
67966;BMP280;54749;47.850;9.002;2022-08-19T09:48:59;95796.03;;;19.41
67966;BMP280;54749;47.850;9.002;2022-08-19T09:51:32;95795.88;;;19.43
67966;BMP280;54749;47.850;9.002;2022-08-19T09:54:02;95797.00;;;19.40
67966;BMP280;54749;47.850;9.002;2022-08-19T09:56:31;95804.41;;;19.35
67966;BMP280;54749;47.850;9.002;2022-08-19T09:59:01;95799.63;;;19.32
67966;BMP280;54749;47.850;9.002;2022-08-19T10:01:31;95804.88;;;19.39
67966;BMP280;54749;47.850;9.002;2022-08-19T10:04:00;95801.31;;;19.40
67966;BMP280;54749;47.850;9.002;2022-08-19T10:06:33;95798.88;;;19.46
67966;BMP280;54749;47.850;9.002;2022-08-19T10:09:14;95798.25;;;19.52
67966;BMP280;54749;47.850;9.002;2022-08-19T10:11:43;95803.97;;;19.54
67966;BMP280;54749;47.850;9.002;2022-08-19T10:14:20;95810.06;;;19.53
67966;BMP280;54749;47.850;9.002;2022-08-19T10:16:50;95811.06;;;19.52
67966;BMP280;54749;47.850;9.002;2022-08-19T10:19:18;95802.66;;;19.58
67966;BMP280;54749;47.850;9.002;2022-08-19T10:21:52;95809.38;;;19.59
67966;BMP280;54749;47.850;9.002;2022-08-19T10:24:24;95811.59;;;19.62
67966;BMP280;54749;47.850;9.002;2022-08-19T10:26:53;95804.84;;;19.68
67966;BMP280;54749;47.850;9.002;2022-08-19T10:29:23;95807.03;;;19.71
67966;BMP280;54749;47.850;9.002;2022-08-19T10:32:00;95814.38;;;19.74
67966;BMP280;54749;47.850;9.002;2022-08-19T10:34:30;95811.56;;;19.69
67966;BMP280;54749;47.850;9.002;2022-08-19T10:36:57;95812.59;;;19.61
67966;BMP280;54749;47.850;9.002;2022-08-19T10:39:36;95817.25;;;19.57
67966;BMP280;54749;47.850;9.002;2022-08-19T10:42:10;95817.13;;;19.51
67966;BMP280;54749;47.850;9.002;2022-08-19T10:44:37;95830.31;;;19.40
67966;BMP280;54749;47.850;9.002;2022-08-19T10:47:04;95832.28;;;19.38
67966;BMP280;54749;47.850;9.002;2022-08-19T10:49:50;95823.66;;;19.31
67966;BMP280;54749;47.850;9.002;2022-08-19T10:52:40;95826.94;;;19.18
67966;BMP280;54749;47.850;9.002;2022-08-19T10:55:19;95836.63;;;19.08
67966;BMP280;54749;47.850;9.002;2022-08-19T10:58:13;95832.16;;;19.02
67966;BMP280;54749;47.850;9.002;2022-08-19T11:00:41;95829.94;;;18.99
67966;BMP280;54749;47.850;9.002;2022-08-19T11:03:10;95836.84;;;18.99
67966;BMP280;54749;47.850;9.002;2022-08-19T11:05:36;95829.50;;;18.96
67966;BMP280;54749;47.850;9.002;2022-08-19T11:08:07;95830.97;;;18.91
67966;BMP280;54749;47.850;9.002;2022-08-19T11:10:50;95832.75;;;18.82
67966;BMP280;54749;47.850;9.002;2022-08-19T11:13:17;95830.34;;;18.81
67966;BMP280;54749;47.850;9.002;2022-08-19T11:15:43;95828.94;;;18.78
67966;BMP280;54749;47.850;9.002;2022-08-19T11:18:12;95832.63;;;18.76
67966;BMP280;54749;47.850;9.002;2022-08-19T11:20:39;95834.84;;;18.79
67966;BMP280;54749;47.850;9.002;2022-08-19T11:23:06;95845.06;;;18.79
67966;BMP280;54749;47.850;9.002;2022-08-19T11:25:32;95853.91;;;18.77
67966;BMP280;54749;47.850;9.002;2022-08-19T11:28:01;95846.06;;;18.78
67966;BMP280;54749;47.850;9.002;2022-08-19T11:30:27;95845.88;;;18.79
67966;BMP280;54749;47.850;9.002;2022-08-19T11:32:54;95843.97;;;18.81
67966;BMP280;54749;47.850;9.002;2022-08-19T11:35:21;95846.19;;;18.84
67966;BMP280;54749;47.850;9.002;2022-08-19T11:37:49;95846.63;;;18.88
67966;BMP280;54749;47.850;9.002;2022-08-19T11:40:16;95854.66;;;18.85
67966;BMP280;54749;47.850;9.002;2022-08-19T11:42:43;95855.97;;;18.81
67966;BMP280;54749;47.850;9.002;2022-08-19T11:45:27;95851.94;;;18.86
67966;BMP280;54749;47.850;9.002;2022-08-19T11:47:55;95854.97;;;18.90
67966;BMP280;54749;47.850;9.002;2022-08-19T11:50:23;95851.59;;;18.89
67966;BMP280;54749;47.850;9.002;2022-08-19T11:52:54;95849.50;;;18.93
67966;BMP280;54749;47.850;9.002;2022-08-19T11:55:21;95857.38;;;18.91
67966;BMP280;54749;47.850;9.002;2022-08-19T11:57:49;95844.25;;;18.86
67966;BMP280;54749;47.850;9.002;2022-08-19T12:00:16;95839.16;;;18.86
67966;BMP280;54749;47.850;9.002;2022-08-19T12:02:43;95853.22;;;18.90
67966;BMP280;54749;47.850;9.002;2022-08-19T12:05:10;95853.16;;;18.98
67966;BMP280;54749;47.850;9.002;2022-08-19T12:07:39;95850.75;;;19.04
67966;BMP280;54749;47.850;9.002;2022-08-19T12:10:07;95849.66;;;18.99
67966;BMP280;54749;47.850;9.002;2022-08-19T12:12:36;95853.97;;;18.98
67966;BMP280;54749;47.850;9.002;2022-08-19T12:15:09;95858.75;;;19.01
67966;BMP280;54749;47.850;9.002;2022-08-19T12:17:37;95851.50;;;19.12
67966;BMP280;54749;47.850;9.002;2022-08-19T12:20:05;95858.97;;;19.22
67966;BMP280;54749;47.850;9.002;2022-08-19T12:22:33;95867.72;;;19.35
67966;BMP280;54749;47.850;9.002;2022-08-19T12:25:01;95862.34;;;19.44
67966;BMP280;54749;47.850;9.002;2022-08-19T12:27:28;95859.78;;;19.52
67966;BMP280;54749;47.850;9.002;2022-08-19T12:30:09;95856.34;;;19.59
67966;BMP280;54749;47.850;9.002;2022-08-19T12:32:37;95851.66;;;19.63
67966;BMP280;54749;47.850;9.002;2022-08-19T12:35:04;95857.38;;;19.72
67966;BMP280;54749;47.850;9.002;2022-08-19T12:37:31;95853.03;;;19.73
67966;BMP280;54749;47.850;9.002;2022-08-19T12:39:59;95850.19;;;19.68
67966;BMP280;54749;47.850;9.002;2022-08-19T12:42:26;95854.53;;;19.67
67966;BMP280;54749;47.850;9.002;2022-08-19T12:44:53;95850.28;;;19.74
67966;BMP280;54749;47.850;9.002;2022-08-19T12:47:20;95857.13;;;19.82
67966;BMP280;54749;47.850;9.002;2022-08-19T12:49:48;95858.47;;;19.92
67966;BMP280;54749;47.850;9.002;2022-08-19T12:52:23;95867.50;;;19.88
67966;BMP280;54749;47.850;9.002;2022-08-19T12:54:52;95861.91;;;19.84
67966;BMP280;54749;47.850;9.002;2022-08-19T12:57:27;95862.19;;;19.89
67966;BMP280;54749;47.850;9.002;2022-08-19T13:00:08;95860.00;;;19.86
67966;BMP280;54749;47.850;9.002;2022-08-19T13:02:44;95871.06;;;19.87
67966;BMP280;54749;47.850;9.002;2022-08-19T13:05:14;95874.16;;;19.97
67966;BMP280;54749;47.850;9.002;2022-08-19T13:07:42;95870.56;;;20.05
67966;BMP280;54749;47.850;9.002;2022-08-19T13:10:12;95873.75;;;20.07
67966;BMP280;54749;47.850;9.002;2022-08-19T13:12:42;95870.09;;;20.02
67966;BMP280;54749;47.850;9.002;2022-08-19T13:15:10;95881.72;;;20.12
67966;BMP280;54749;47.850;9.002;2022-08-19T13:17:39;95879.78;;;20.14
67966;BMP280;54749;47.850;9.002;2022-08-19T13:20:09;95883.41;;;20.19
67966;BMP280;54749;47.850;9.002;2022-08-19T13:22:37;95876.97;;;20.23
67966;BMP280;54749;47.850;9.002;2022-08-19T13:25:05;95876.53;;;20.20
67966;BMP280;54749;47.850;9.002;2022-08-19T13:27:32;95878.44;;;20.18
67966;BMP280;54749;47.850;9.002;2022-08-19T13:30:00;95877.47;;;20.19
67966;BMP280;54749;47.850;9.002;2022-08-19T13:32:46;95878.13;;;20.21
67966;BMP280;54749;47.850;9.002;2022-08-19T13:35:31;95884.81;;;20.22
67966;BMP280;54749;47.850;9.002;2022-08-19T13:37:58;95888.16;;;20.30
67966;BMP280;54749;47.850;9.002;2022-08-19T13:40:26;95880.91;;;20.34
67966;BMP280;54749;47.850;9.002;2022-08-19T13:42:54;95878.66;;;20.31
67966;BMP280;54749;47.850;9.002;2022-08-19T13:45:24;95878.03;;;20.29
67966;BMP280;54749;47.850;9.002;2022-08-19T13:47:53;95891.63;;;20.15
67966;BMP280;54749;47.850;9.002;2022-08-19T13:50:28;95896.66;;;20.09
67966;BMP280;54749;47.850;9.002;2022-08-19T13:52:56;95890.13;;;20.06
67966;BMP280;54749;47.850;9.002;2022-08-19T13:55:23;95891.34;;;20.10
67966;BMP280;54749;47.850;9.002;2022-08-19T13:57:56;95890.22;;;20.13
67966;BMP280;54749;47.850;9.002;2022-08-19T14:00:24;95893.31;;;20.08
67966;BMP280;54749;47.850;9.002;2022-08-19T14:02:55;95896.84;;;20.07
67966;BMP280;54749;47.850;9.002;2022-08-19T14:05:24;95900.91;;;20.02
67966;BMP280;54749;47.850;9.002;2022-08-19T14:07:51;95904.44;;;20.01
67966;BMP280;54749;47.850;9.002;2022-08-19T14:10:20;95918.56;;;19.97
67966;BMP280;54749;47.850;9.002;2022-08-19T14:12:47;95912.03;;;19.95
67966;BMP280;54749;47.850;9.002;2022-08-19T14:15:15;95912.53;;;19.90
67966;BMP280;54749;47.850;9.002;2022-08-19T14:17:43;95915.72;;;19.92
67966;BMP280;54749;47.850;9.002;2022-08-19T14:20:11;95920.03;;;19.92
67966;BMP280;54749;47.850;9.002;2022-08-19T14:22:45;95917.22;;;19.87
67966;BMP280;54749;47.850;9.002;2022-08-19T14:25:16;95923.47;;;19.84
67966;BMP280;54749;47.850;9.002;2022-08-19T14:27:43;95925.88;;;19.86
67966;BMP280;54749;47.850;9.002;2022-08-19T14:30:14;95925.88;;;19.86
67966;BMP280;54749;47.850;9.002;2022-08-19T14:32:41;95935.94;;;19.87
67966;BMP280;54749;47.850;9.002;2022-08-19T14:35:13;95929.06;;;19.88
67966;BMP280;54749;47.850;9.002;2022-08-19T14:37:42;95922.34;;;19.87
67966;BMP280;54749;47.850;9.002;2022-08-19T14:40:14;95928.16;;;19.81
67966;BMP280;54749;47.850;9.002;2022-08-19T14:42:42;95921.94;;;19.76